createdAt,value
2022-08-26T00:00:02.708Z,6.28
2022-08-26T00:02:15.929Z,6.40
2022-08-26T00:04:23.712Z,5.75
2022-08-26T00:06:27.315Z,6.25
2022-08-26T00:08:30.310Z,6.38
2022-08-26T00:10:33.613Z,5.85
2022-08-26T00:12:37.693Z,5.85
2022-08-26T00:14:42.890Z,6.30
2022-08-26T00:16:48.070Z,5.80
2022-08-26T00:18:51.947Z,5.35
2022-08-26T00:20:55.040Z,6.18
2022-08-26T00:22:59.086Z,6.28
2022-08-26T00:25:02.022Z,6.35
2022-08-26T00:27:06.296Z,6.35
2022-08-26T00:29:09.624Z,6.60
2022-08-26T00:31:15.044Z,6.45
2022-08-26T00:33:19.726Z,6.55
2022-08-26T00:35:24.381Z,7.28
2022-08-26T00:37:30.817Z,6.70
2022-08-26T00:39:33.828Z,6.25
2022-08-26T00:41:39.245Z,7.18
2022-08-26T00:43:47.554Z,7.45
2022-08-26T00:45:54.169Z,6.75
2022-08-26T00:48:00.943Z,6.63
2022-08-26T00:50:09.559Z,6.63
2022-08-26T00:52:16.249Z,6.95
2022-08-26T00:54:23.040Z,6.18
2022-08-26T00:56:29.805Z,6.60
2022-08-26T00:58:35.104Z,6.82
2022-08-26T01:00:38.211Z,6.03
2022-08-26T01:02:46.819Z,6.18
2022-08-26T01:04:55.564Z,7.22
2022-08-26T01:06:59.107Z,7.35
2022-08-26T01:09:02.400Z,6.18
2022-08-26T01:11:08.867Z,7.15
2022-08-26T01:13:13.128Z,6.75
2022-08-26T01:15:20.555Z,6.72
2022-08-26T01:17:23.937Z,7.30
2022-08-26T01:19:31.184Z,6.20
2022-08-26T01:21:41.848Z,6.32
2022-08-26T01:23:48.974Z,6.40
2022-08-26T01:25:55.471Z,7.13
2022-08-26T01:28:00.415Z,6.50
2022-08-26T01:30:06.389Z,6.57
2022-08-26T01:32:11.979Z,7.47
2022-08-26T01:34:19.871Z,6.35
2022-08-26T01:36:23.396Z,6.97
2022-08-26T01:38:27.958Z,6.72
2022-08-26T01:40:38.582Z,7.13
2022-08-26T01:42:42.245Z,6.47
2022-08-26T01:44:48.244Z,6.60
2022-08-26T01:46:51.817Z,7.50
2022-08-26T01:48:56.141Z,7.15
2022-08-26T01:51:00.215Z,6.85
2022-08-26T01:53:07.006Z,6.90
2022-08-26T01:55:11.002Z,6.35
2022-08-26T01:57:15.626Z,7.50
2022-08-26T01:59:20.153Z,7.43
2022-08-26T02:01:23.910Z,7.13
2022-08-26T02:03:32.871Z,7.50
2022-08-26T02:05:36.144Z,7.40
2022-08-26T02:07:41.124Z,7.50
2022-08-26T02:09:44.321Z,7.60
2022-08-26T02:11:47.710Z,7.30
2022-08-26T02:13:56.231Z,6.85
2022-08-26T02:16:00.792Z,7.20
2022-08-26T02:18:05.471Z,7.63
2022-08-26T02:20:13.309Z,7.45
2022-08-26T02:22:20.877Z,7.05
2022-08-26T02:24:27.880Z,8.05
2022-08-26T02:26:31.034Z,6.57
2022-08-26T02:28:40.354Z,7.22
2022-08-26T02:30:45.031Z,7.45
2022-08-26T02:32:49.613Z,6.90
2022-08-26T02:34:52.911Z,6.85
2022-08-26T02:36:58.020Z,6.63
2022-08-26T02:39:00.948Z,6.90
2022-08-26T02:41:06.759Z,6.78
2022-08-26T02:43:12.513Z,6.78
2022-08-26T02:45:16.713Z,7.35
2022-08-26T02:47:29.001Z,7.55
2022-08-26T02:49:32.224Z,7.60
2022-08-26T02:51:35.197Z,7.47
2022-08-26T02:53:38.566Z,7.78
2022-08-26T02:55:42.813Z,7.47
2022-08-26T02:57:46.782Z,7.38
2022-08-26T02:59:51.733Z,7.65
2022-08-26T03:01:56.066Z,6.63
2022-08-26T03:04:01.497Z,8.60
2022-08-26T03:06:04.504Z,7.22
2022-08-26T03:08:11.889Z,7.38
2022-08-26T03:10:16.324Z,8.45
2022-08-26T03:12:20.345Z,6.55
2022-08-26T03:14:23.864Z,7.78
2022-08-26T03:16:26.926Z,7.53
2022-08-26T03:18:36.000Z,7.93
2022-08-26T03:20:40.551Z,6.93
2022-08-26T03:22:44.493Z,9.05
2022-08-26T03:24:47.444Z,7.25
2022-08-26T03:26:52.789Z,8.00
2022-08-26T03:29:14.150Z,8.02
2022-08-26T03:31:17.162Z,8.77
2022-08-26T03:33:20.180Z,8.60
2022-08-26T03:35:23.078Z,9.13
2022-08-26T03:37:27.356Z,7.28
2022-08-26T03:39:31.578Z,9.63
2022-08-26T03:41:36.813Z,7.80
2022-08-26T03:43:40.600Z,8.82
2022-08-26T03:45:46.058Z,8.65
2022-08-26T03:47:50.055Z,8.98
2022-08-26T03:49:53.003Z,8.02
2022-08-26T03:51:56.493Z,8.68
2022-08-26T03:54:02.958Z,9.00
2022-08-26T03:56:08.836Z,9.15
2022-08-26T03:58:13.901Z,9.38
2022-08-26T04:00:18.549Z,8.43
2022-08-26T04:02:21.666Z,8.82
2022-08-26T04:04:24.697Z,9.50
2022-08-26T04:06:29.533Z,9.65
2022-08-26T04:08:32.687Z,11.98
2022-08-26T04:10:38.941Z,13.27
2022-08-26T04:12:42.492Z,14.50
2022-08-26T04:14:45.478Z,16.23
2022-08-26T04:16:49.421Z,19.73
2022-08-26T04:18:52.699Z,19.25
2022-08-26T04:20:55.797Z,17.10
2022-08-26T04:22:58.676Z,19.23
2022-08-26T04:25:02.381Z,22.98
2022-08-26T04:27:06.933Z,20.08
2022-08-26T04:29:13.067Z,21.00
2022-08-26T04:31:18.110Z,20.77
2022-08-26T04:33:32.412Z,23.30
2022-08-26T04:35:37.082Z,23.42
2022-08-26T04:37:43.034Z,21.52
2022-08-26T04:39:46.119Z,21.95
2022-08-26T04:41:50.154Z,27.35
2022-08-26T04:43:55.148Z,25.73
2022-08-26T04:45:59.512Z,27.10
2022-08-26T04:48:02.481Z,26.45
2022-08-26T04:50:08.931Z,28.10
2022-08-26T04:52:13.982Z,27.77
2022-08-26T04:54:17.279Z,28.85
2022-08-26T04:56:21.502Z,28.58
2022-08-26T04:58:25.981Z,28.63
2022-08-26T05:00:30.250Z,28.08
2022-08-26T05:02:33.169Z,32.25
2022-08-26T05:04:36.084Z,31.63
2022-08-26T05:06:39.326Z,31.95
2022-08-26T05:08:42.396Z,33.70
2022-08-26T05:10:49.074Z,35.30
2022-08-26T05:12:52.482Z,34.58
2022-08-26T05:14:56.738Z,36.35
2022-08-26T05:17:01.893Z,36.70
2022-08-26T05:19:06.740Z,40.45
2022-08-26T05:21:18.567Z,39.35
2022-08-26T05:23:22.712Z,41.70
2022-08-26T05:25:27.501Z,40.17
2022-08-26T05:27:30.620Z,39.00
2022-08-26T05:29:33.586Z,43.17
2022-08-26T05:31:36.659Z,42.97
2022-08-26T05:33:41.479Z,40.17
2022-08-26T05:35:46.539Z,39.97
2022-08-26T05:37:49.987Z,42.25
2022-08-26T05:39:52.965Z,42.60
2022-08-26T05:41:56.009Z,44.25
2022-08-26T05:44:00.665Z,42.13
2022-08-26T05:46:10.960Z,45.50
2022-08-26T05:48:14.121Z,49.35
2022-08-26T05:50:21.849Z,52.97
2022-08-26T05:52:26.187Z,50.42
2022-08-26T05:54:29.265Z,56.30
2022-08-26T05:56:32.196Z,57.92
2022-08-26T05:58:36.442Z,58.10
2022-08-26T06:00:39.593Z,58.22
2022-08-26T06:02:44.796Z,59.15
2022-08-26T06:04:51.833Z,58.88
2022-08-26T06:06:56.451Z,61.55
2022-08-26T06:09:01.242Z,50.40
2022-08-26T06:11:18.327Z,57.97
2022-08-26T06:13:23.760Z,56.88
2022-08-26T06:15:26.931Z,57.92
2022-08-26T06:17:30.177Z,57.97
2022-08-26T06:19:34.525Z,53.97
2022-08-26T06:21:39.201Z,53.83
2022-08-26T06:24:02.025Z,55.50
2022-08-26T06:26:07.912Z,57.60
2022-08-26T06:28:15.302Z,56.45
2022-08-26T06:30:18.475Z,52.22
2022-08-26T06:32:21.610Z,57.22
2022-08-26T06:34:29.774Z,57.35
2022-08-26T06:36:34.903Z,63.65
2022-08-26T06:38:41.846Z,60.67
2022-08-26T06:40:49.355Z,65.25
2022-08-26T06:42:52.398Z,61.05
2022-08-26T06:44:55.502Z,64.78
2022-08-26T06:46:58.501Z,71.93
2022-08-26T06:49:01.850Z,69.53
2022-08-26T06:51:11.318Z,69.22
2022-08-26T06:53:15.515Z,73.40
2022-08-26T06:55:18.966Z,75.22
2022-08-26T06:57:23.654Z,69.72
2022-08-26T06:59:27.054Z,73.40
2022-08-26T07:01:32.101Z,69.32
2022-08-26T07:03:35.173Z,68.75
2022-08-26T07:05:42.930Z,64.30
2022-08-26T07:07:45.926Z,68.10
2022-08-26T07:09:48.872Z,71.75
2022-08-26T07:11:56.375Z,69.32
2022-08-26T07:14:01.136Z,69.05
2022-08-26T07:16:07.872Z,62.08
2022-08-26T07:18:12.761Z,65.75
2022-08-26T07:20:16.103Z,61.80
2022-08-26T07:22:20.164Z,64.90
2022-08-26T07:24:23.918Z,66.88
2022-08-26T07:26:32.369Z,69.47
2022-08-26T07:28:35.419Z,64.82
2022-08-26T07:30:41.958Z,65.85
2022-08-26T07:32:44.959Z,58.53
2022-08-26T07:34:47.969Z,58.58
2022-08-26T07:36:51.530Z,58.15
2022-08-26T07:38:54.423Z,59.65
2022-08-26T07:40:57.337Z,62.03
2022-08-26T07:43:00.919Z,60.60
2022-08-26T07:45:04.033Z,59.17
2022-08-26T07:47:10.446Z,60.95
2022-08-26T07:49:28.359Z,64.18
2022-08-26T07:51:31.842Z,52.08
2022-08-26T07:53:35.679Z,58.88
2022-08-26T07:55:38.688Z,61.15
2022-08-26T07:57:42.165Z,60.40
2022-08-26T07:59:45.551Z,60.03
2022-08-26T08:01:49.180Z,56.50
2022-08-26T08:03:54.612Z,55.35
2022-08-26T08:05:57.609Z,58.55
2022-08-26T08:08:26.664Z,56.30
2022-08-26T08:10:26.642Z,51.40
2022-08-26T08:12:29.620Z,52.60
2022-08-26T08:14:32.625Z,52.28
2022-08-26T08:16:37.182Z,56.17
2022-08-26T08:18:42.215Z,51.83
2022-08-26T08:20:59.163Z,49.42
2022-08-26T08:23:14.910Z,51.78
2022-08-26T08:25:18.229Z,50.90
2022-08-26T08:27:23.886Z,50.13
2022-08-26T08:29:28.194Z,48.90
2022-08-26T08:31:55.760Z,50.03
2022-08-26T08:33:58.185Z,55.28
2022-08-26T08:36:02.877Z,53.67
2022-08-26T08:38:06.075Z,52.58
2022-08-26T08:40:11.520Z,49.67
2022-08-26T08:42:32.459Z,51.47
2022-08-26T08:44:39.219Z,50.88
2022-08-26T08:46:43.057Z,53.05
2022-08-26T08:48:48.398Z,52.63
2022-08-26T08:50:53.907Z,50.72
2022-08-26T08:53:08.832Z,50.22
2022-08-26T08:55:18.063Z,47.83
2022-08-26T08:57:27.676Z,51.92
2022-08-26T08:59:34.205Z,51.50
2022-08-26T09:01:45.038Z,49.30
2022-08-26T09:03:53.157Z,45.80
2022-08-26T09:05:56.846Z,45.95
2022-08-26T09:08:04.107Z,44.40
2022-08-26T09:10:24.420Z,41.85
2022-08-26T09:12:31.027Z,37.22
2022-08-26T09:14:34.081Z,36.30
2022-08-26T09:16:41.397Z,44.15
2022-08-26T09:19:08.531Z,41.63
2022-08-26T09:21:13.954Z,42.40
2022-08-26T09:23:19.139Z,42.20
2022-08-26T09:25:22.077Z,43.13
2022-08-26T09:27:46.177Z,42.97
2022-08-26T09:29:50.467Z,41.78
2022-08-26T09:32:16.108Z,38.95
2022-08-26T09:34:21.262Z,43.92
2022-08-26T09:36:39.214Z,41.13
2022-08-26T09:38:46.004Z,41.67
2022-08-26T09:40:59.298Z,44.92
2022-08-26T09:43:13.413Z,38.85
2022-08-26T09:45:17.151Z,40.20
2022-08-26T09:47:23.547Z,40.58
2022-08-26T09:49:35.809Z,42.05
2022-08-26T09:51:39.633Z,38.28
2022-08-26T09:53:54.036Z,35.42
2022-08-26T09:56:13.643Z,35.30
2022-08-26T09:58:18.426Z,35.40
2022-08-26T10:00:31.496Z,36.97
2022-08-26T10:02:41.518Z,36.47
2022-08-26T10:04:52.030Z,36.33
2022-08-26T10:06:59.024Z,38.55
2022-08-26T10:09:08.187Z,37.40
2022-08-26T10:11:18.004Z,33.97
2022-08-26T10:13:27.080Z,32.47
2022-08-26T10:15:41.481Z,29.85
2022-08-26T10:17:57.017Z,29.30
2022-08-26T10:20:03.704Z,28.80
2022-08-26T10:22:13.845Z,30.98
2022-08-26T10:24:22.612Z,26.20
2022-08-26T10:26:29.493Z,33.90
2022-08-26T10:28:37.003Z,30.77
2022-08-26T10:30:44.567Z,31.90
2022-08-26T10:32:50.309Z,28.85
2022-08-26T10:34:53.785Z,32.15
2022-08-26T10:37:13.536Z,31.83
2022-08-26T10:39:22.603Z,30.75
2022-08-26T10:41:27.179Z,27.38
2022-08-26T10:43:35.555Z,27.10
2022-08-26T10:45:40.220Z,24.92
2022-08-26T10:47:48.632Z,24.77
2022-08-26T10:49:57.541Z,23.00
2022-08-26T10:52:12.326Z,19.80
2022-08-26T10:54:25.396Z,21.73
2022-08-26T10:56:44.929Z,20.13
2022-08-26T10:58:58.698Z,21.00
2022-08-26T11:01:28.602Z,23.05
2022-08-26T11:03:36.475Z,21.23
2022-08-26T11:05:40.959Z,22.35
2022-08-26T11:07:46.015Z,21.58
2022-08-26T11:09:50.411Z,22.52
2022-08-26T11:11:53.436Z,17.35
2022-08-26T11:14:04.328Z,18.40
2022-08-26T11:16:10.527Z,19.42
2022-08-26T11:18:14.443Z,20.65
2022-08-26T11:20:34.190Z,19.73
2022-08-26T11:22:47.393Z,19.15
2022-08-26T11:25:14.064Z,19.38
2022-08-26T11:28:05.080Z,18.05
2022-08-26T11:30:10.742Z,19.15
2022-08-26T11:32:25.935Z,15.98
2022-08-26T11:34:56.194Z,19.60
2022-08-26T11:37:00.640Z,20.15
2022-08-26T11:39:04.607Z,19.85
2022-08-26T11:41:19.885Z,19.73
2022-08-26T11:43:29.854Z,18.27
2022-08-26T11:45:36.140Z,15.10
2022-08-26T11:47:40.594Z,17.48
2022-08-26T11:49:43.576Z,16.08
2022-08-26T11:51:48.377Z,13.15
2022-08-26T11:53:52.441Z,15.57
2022-08-26T11:55:57.088Z,13.45
2022-08-26T11:58:05.010Z,13.68
2022-08-26T12:00:13.617Z,12.73
2022-08-26T12:02:19.327Z,12.52
2022-08-26T12:04:28.686Z,13.20
2022-08-26T12:06:36.463Z,12.55
2022-08-26T12:08:46.726Z,15.65
2022-08-26T12:10:50.077Z,13.90
2022-08-26T12:12:56.689Z,13.23
2022-08-26T12:15:10.161Z,11.48
2022-08-26T12:17:15.526Z,11.43
2022-08-26T12:19:27.420Z,9.57
2022-08-26T12:21:34.862Z,12.05
2022-08-26T12:23:43.341Z,10.98
2022-08-26T12:25:46.828Z,10.27
2022-08-26T12:27:53.776Z,11.98
2022-08-26T12:30:08.480Z,10.68
2022-08-26T12:32:18.356Z,10.15
2022-08-26T12:34:21.366Z,10.05
2022-08-26T12:36:28.642Z,10.63
2022-08-26T12:38:33.948Z,10.70
2022-08-26T12:40:41.684Z,11.15
2022-08-26T12:42:44.629Z,9.32
2022-08-26T12:44:53.388Z,11.45
2022-08-26T12:47:03.292Z,12.85
2022-08-26T12:49:07.703Z,9.93
2022-08-26T12:51:25.679Z,12.88
2022-08-26T12:53:30.292Z,12.38
2022-08-26T12:55:40.349Z,10.75
2022-08-26T12:57:43.314Z,10.60
2022-08-26T12:59:46.248Z,12.25
2022-08-26T13:01:49.533Z,11.73
2022-08-26T13:03:52.544Z,12.93
2022-08-26T13:06:27.870Z,12.13
2022-08-26T13:08:31.360Z,11.82
2022-08-26T13:10:36.400Z,9.77
2022-08-26T13:12:41.085Z,11.82
2022-08-26T13:14:44.022Z,12.63
2022-08-26T13:16:47.398Z,12.30
2022-08-26T13:18:52.143Z,11.93
2022-08-26T13:20:56.718Z,12.70
2022-08-26T13:23:00.003Z,10.85
2022-08-26T13:25:02.953Z,10.00
2022-08-26T13:27:07.280Z,11.27
2022-08-26T13:29:10.734Z,11.30
2022-08-26T13:31:15.335Z,10.95
2022-08-26T13:33:21.371Z,10.48
2022-08-26T13:35:24.349Z,10.40
2022-08-26T13:37:35.278Z,11.55
2022-08-26T13:39:39.416Z,9.70
2022-08-26T13:41:43.017Z,9.57
2022-08-26T13:43:46.040Z,10.05
2022-08-26T13:45:49.448Z,8.35
2022-08-26T13:47:52.399Z,7.50
2022-08-26T13:49:55.437Z,7.72
2022-08-26T13:51:59.568Z,7.60
2022-08-26T13:54:04.004Z,8.23
2022-08-26T13:56:11.099Z,7.60
2022-08-26T13:58:14.598Z,7.38
2022-08-26T14:00:18.534Z,6.07
2022-08-26T14:02:22.437Z,6.65
2022-08-26T14:04:27.161Z,7.05
2022-08-26T14:06:30.636Z,5.78
2022-08-26T14:08:33.705Z,6.43
2022-08-26T14:10:38.062Z,5.80
2022-08-26T14:12:41.054Z,6.13
2022-08-26T14:14:44.105Z,6.53
2022-08-26T14:16:59.779Z,6.25
2022-08-26T14:19:03.729Z,5.78
2022-08-26T14:21:09.264Z,6.50
2022-08-26T14:23:14.286Z,5.60
2022-08-26T14:25:17.962Z,5.68
2022-08-26T14:27:22.634Z,6.57
2022-08-26T14:29:26.275Z,5.13
2022-08-26T14:31:31.649Z,6.32
2022-08-26T14:33:38.143Z,4.60
2022-08-26T14:35:41.063Z,5.55
2022-08-26T14:37:51.974Z,4.28
2022-08-26T14:39:55.130Z,6.15
2022-08-26T14:41:58.188Z,4.38
2022-08-26T14:44:04.389Z,5.15
2022-08-26T14:46:10.124Z,4.85
2022-08-26T14:48:13.299Z,4.60
2022-08-26T14:50:19.199Z,5.32
2022-08-26T14:52:22.756Z,4.28
2022-08-26T14:54:24.742Z,4.32
2022-08-26T14:56:27.902Z,5.22
2022-08-26T14:58:34.989Z,4.97
2022-08-26T15:00:39.730Z,4.55
2022-08-26T15:02:44.382Z,5.60
2022-08-26T15:04:47.716Z,5.45
2022-08-26T15:06:51.142Z,4.72
2022-08-26T15:08:54.109Z,4.43
2022-08-26T15:10:57.181Z,4.85
2022-08-26T15:13:01.079Z,4.43
2022-08-26T15:15:04.534Z,5.15
2022-08-26T15:17:08.861Z,4.50
2022-08-26T15:19:11.855Z,4.90
2022-08-26T15:21:14.856Z,4.47
2022-08-26T15:23:19.209Z,3.90
2022-08-26T15:25:24.554Z,4.15
2022-08-26T15:27:27.637Z,4.50
2022-08-26T15:29:30.582Z,4.50
2022-08-26T15:31:36.613Z,5.00
2022-08-26T15:33:40.985Z,4.40
2022-08-26T15:35:44.017Z,4.65
2022-08-26T15:37:47.050Z,5.15
2022-08-26T15:39:50.533Z,4.10
2022-08-26T15:41:55.993Z,4.15
2022-08-26T15:43:59.197Z,4.53
2022-08-26T15:46:02.288Z,4.22
2022-08-26T15:48:05.556Z,4.30
2022-08-26T15:50:10.736Z,4.10
2022-08-26T15:52:13.609Z,3.85
2022-08-26T15:54:18.162Z,4.97
2022-08-26T15:56:21.089Z,4.60
2022-08-26T15:58:27.053Z,4.18
2022-08-26T16:00:30.373Z,4.13
2022-08-26T16:02:33.384Z,3.83
2022-08-26T16:04:36.569Z,4.63
2022-08-26T16:06:43.442Z,3.83
2022-08-26T16:08:46.478Z,4.07
2022-08-26T16:10:51.331Z,3.80
2022-08-26T16:12:55.081Z,4.18
2022-08-26T16:14:58.239Z,4.05
2022-08-26T16:17:01.174Z,4.70
2022-08-26T16:19:07.422Z,4.82
2022-08-26T16:21:17.171Z,3.97
2022-08-26T16:23:22.474Z,3.88
2022-08-26T16:25:26.240Z,4.13
2022-08-26T16:27:29.227Z,4.30
2022-08-26T16:29:32.575Z,5.20
2022-08-26T16:31:37.210Z,3.88
2022-08-26T16:33:40.675Z,4.47
2022-08-26T16:35:44.357Z,4.22
2022-08-26T16:37:47.393Z,3.80
2022-08-26T16:39:51.925Z,3.40
2022-08-26T16:41:54.893Z,3.67
2022-08-26T16:43:58.201Z,3.80
2022-08-26T16:46:01.562Z,4.05
2022-08-26T16:48:06.185Z,3.67
2022-08-26T16:50:12.932Z,3.53
2022-08-26T16:52:16.428Z,3.13
2022-08-26T16:54:19.650Z,2.42
2022-08-26T16:56:33.604Z,3.80
2022-08-26T16:58:37.481Z,3.20
2022-08-26T17:00:40.439Z,3.70
2022-08-26T17:02:43.759Z,3.85
2022-08-26T17:04:47.293Z,3.50
2022-08-26T17:06:53.628Z,3.15
2022-08-26T17:08:56.587Z,3.03
2022-08-26T17:11:00.801Z,3.75
2022-08-26T17:13:05.224Z,4.00
2022-08-26T17:15:10.326Z,3.63
2022-08-26T17:17:13.661Z,3.17
2022-08-26T17:19:17.416Z,3.17
2022-08-26T17:21:20.652Z,3.33
2022-08-26T17:23:24.907Z,3.70
2022-08-26T17:25:31.606Z,3.72
2022-08-26T17:27:34.616Z,3.42
2022-08-26T17:29:38.992Z,3.35
2022-08-26T17:31:43.508Z,3.22
2022-08-26T17:33:53.193Z,4.38
2022-08-26T17:35:57.209Z,3.13
2022-08-26T17:38:00.740Z,3.50
2022-08-26T17:40:05.113Z,3.83
2022-08-26T17:42:08.358Z,3.58
2022-08-26T17:44:12.357Z,3.53
2022-08-26T17:46:16.850Z,3.72
2022-08-26T17:48:19.854Z,3.95
2022-08-26T17:50:24.133Z,3.38
2022-08-26T17:52:27.057Z,3.80
2022-08-26T17:54:30.218Z,3.53
2022-08-26T17:56:34.957Z,3.90
2022-08-26T17:58:38.744Z,2.95
2022-08-26T18:00:44.095Z,4.10
2022-08-26T18:02:48.500Z,4.03
2022-08-26T18:04:51.464Z,3.88
2022-08-26T18:06:54.517Z,4.07
2022-08-26T18:08:57.706Z,3.63
2022-08-26T18:11:01.014Z,3.65
2022-08-26T18:13:04.087Z,4.28
2022-08-26T18:15:07.705Z,5.00
2022-08-26T18:17:10.798Z,4.75
2022-08-26T18:19:15.212Z,3.90
2022-08-26T18:21:19.823Z,4.40
2022-08-26T18:23:22.855Z,4.28
2022-08-26T18:25:27.227Z,3.97
2022-08-26T18:27:30.168Z,4.30
2022-08-26T18:29:33.090Z,3.88
2022-08-26T18:31:36.026Z,4.32
2022-08-26T18:33:40.813Z,3.38
2022-08-26T18:35:46.423Z,4.00
2022-08-26T18:37:49.713Z,3.60
2022-08-26T18:39:52.701Z,3.95
2022-08-26T18:41:55.661Z,3.45
2022-08-26T18:43:58.926Z,3.55
2022-08-26T18:46:03.360Z,3.05
2022-08-26T18:48:06.719Z,4.00
2022-08-26T18:50:10.896Z,3.33
2022-08-26T18:52:15.284Z,3.42
2022-08-26T18:56:26.820Z,3.63
2022-08-26T18:58:29.730Z,3.15
2022-08-26T19:00:32.890Z,3.42
2022-08-26T19:02:35.963Z,3.28
2022-08-26T19:04:39.411Z,2.40
2022-08-26T19:06:42.603Z,2.80
2022-08-26T19:08:49.924Z,3.17
2022-08-26T19:10:53.071Z,2.47
2022-08-26T19:13:00.100Z,2.75
2022-08-26T19:15:03.846Z,3.22
2022-08-26T19:17:06.814Z,2.72
2022-08-26T19:19:09.900Z,2.63
2022-08-26T19:21:13.227Z,2.83
2022-08-26T19:23:34.073Z,2.30
2022-08-26T19:25:42.419Z,2.97
2022-08-26T19:27:45.421Z,3.13
2022-08-26T19:29:48.326Z,2.33
2022-08-26T19:31:51.276Z,3.00
2022-08-26T19:33:54.240Z,2.60
2022-08-26T19:35:57.298Z,2.20
2022-08-26T19:38:00.453Z,2.45
2022-08-26T19:40:03.729Z,2.55
2022-08-26T19:42:08.404Z,2.00
2022-08-26T19:44:33.883Z,2.17
2022-08-26T19:48:43.950Z,2.33
2022-08-26T19:50:47.555Z,2.35
2022-08-26T19:52:50.563Z,2.55
2022-08-26T19:54:53.539Z,2.40
2022-08-26T19:56:57.518Z,3.08
2022-08-26T19:59:02.111Z,2.20
2022-08-26T20:01:05.429Z,2.28
2022-08-26T20:03:15.877Z,2.47
2022-08-26T20:05:20.964Z,2.58
2022-08-26T20:07:24.184Z,2.30
2022-08-26T20:09:27.188Z,2.70
2022-08-26T20:11:30.442Z,1.65
2022-08-26T20:13:34.264Z,1.88
2022-08-26T20:15:38.636Z,2.80
2022-08-26T20:17:41.796Z,2.08
2022-08-26T20:20:02.195Z,1.75
2022-08-26T20:22:05.851Z,1.98
2022-08-26T20:24:11.182Z,1.90
2022-08-26T20:26:14.131Z,1.92
2022-08-26T20:28:18.512Z,2.13
2022-08-26T20:30:21.765Z,2.67
2022-08-26T20:32:26.286Z,2.50
2022-08-26T20:34:29.783Z,2.63
2022-08-26T20:36:33.221Z,2.20
2022-08-26T20:38:36.110Z,1.98
2022-08-26T20:40:39.022Z,2.10
2022-08-26T20:42:42.449Z,2.00
2022-08-26T20:44:47.378Z,2.20
2022-08-26T20:46:59.147Z,2.60
2022-08-26T20:49:03.810Z,2.38
2022-08-26T20:51:12.457Z,2.50
2022-08-26T20:53:15.670Z,2.00
2022-08-26T20:55:18.820Z,2.72
2022-08-26T20:57:22.291Z,3.40
2022-08-26T20:59:25.783Z,3.25
2022-08-26T21:01:34.500Z,2.80
2022-08-26T21:03:38.037Z,2.80
2022-08-26T21:05:42.410Z,2.28
2022-08-26T21:07:45.917Z,2.10
2022-08-26T21:09:48.795Z,2.40
2022-08-26T21:11:55.137Z,3.13
2022-08-26T21:14:06.768Z,3.08
2022-08-26T21:16:19.631Z,3.35
2022-08-26T21:18:22.668Z,3.35
2022-08-26T21:20:25.690Z,2.72
2022-08-26T21:22:30.181Z,3.20
2022-08-26T21:24:33.319Z,4.18
2022-08-26T21:26:36.285Z,4.72
2022-08-26T21:28:40.714Z,3.30
2022-08-26T21:30:43.750Z,2.90
2022-08-26T21:32:46.664Z,3.40
2022-08-26T21:34:49.580Z,3.10
2022-08-26T21:36:52.490Z,3.30
2022-08-26T21:38:57.865Z,3.28
2022-08-26T21:41:02.100Z,2.67
2022-08-26T21:43:05.393Z,3.17
2022-08-26T21:45:09.963Z,3.63
2022-08-26T21:47:13.106Z,3.03
2022-08-26T21:49:16.762Z,2.97
2022-08-26T21:51:22.048Z,3.40
2022-08-26T21:53:24.897Z,2.67
2022-08-26T21:55:29.216Z,3.10
2022-08-26T21:57:33.822Z,3.35
2022-08-26T21:59:36.802Z,3.97
2022-08-26T22:01:39.698Z,3.65
2022-08-26T22:03:47.347Z,4.30
2022-08-26T22:05:51.280Z,3.97
2022-08-26T22:07:54.087Z,3.67
2022-08-26T22:09:57.061Z,4.50
2022-08-26T22:12:01.812Z,3.80
2022-08-26T22:14:04.736Z,3.92
2022-08-26T22:16:12.735Z,3.92
2022-08-26T22:18:16.041Z,5.55
2022-08-26T22:20:19.015Z,3.90
2022-08-26T22:22:23.208Z,3.20
2022-08-26T22:24:27.948Z,3.20
2022-08-26T22:26:32.969Z,3.50
2022-08-26T22:28:37.588Z,4.68
2022-08-26T22:30:42.516Z,4.80
2022-08-26T22:32:45.858Z,4.72
2022-08-26T22:34:48.892Z,4.47
2022-08-26T22:36:52.221Z,3.92
2022-08-26T22:38:55.859Z,3.90
2022-08-26T22:41:00.472Z,5.53
2022-08-26T22:43:04.384Z,3.60
2022-08-26T22:45:10.672Z,4.45
2022-08-26T22:47:13.659Z,4.75
2022-08-26T22:49:16.888Z,4.60
2022-08-26T22:51:20.039Z,3.67
2022-08-26T22:53:23.335Z,3.22
2022-08-26T22:55:28.368Z,3.30
2022-08-26T22:57:31.324Z,3.45
2022-08-26T22:59:34.257Z,3.05
2022-08-26T23:01:40.252Z,7.78
2022-08-26T23:03:43.322Z,6.90
2022-08-26T23:05:46.865Z,6.95
2022-08-26T23:07:54.016Z,7.95
2022-08-26T23:09:57.020Z,6.38
2022-08-26T23:11:59.981Z,6.13
2022-08-26T23:14:06.423Z,6.85
2022-08-26T23:16:13.509Z,7.25
2022-08-26T23:18:18.074Z,7.03
2022-08-26T23:20:20.999Z,6.45
2022-08-26T23:22:24.280Z,6.43
2022-08-26T23:24:28.625Z,6.32
2022-08-26T23:26:31.671Z,5.63
2022-08-26T23:28:35.032Z,5.70
2022-08-26T23:30:38.010Z,6.28
2022-08-26T23:32:41.095Z,6.40
2022-08-26T23:34:56.934Z,5.55
2022-08-26T23:37:00.228Z,8.70
2022-08-26T23:39:04.769Z,7.90
2022-08-26T23:41:10.137Z,9.68
2022-08-26T23:43:13.105Z,8.27
2022-08-26T23:45:18.373Z,7.90
2022-08-26T23:47:21.316Z,7.00
2022-08-26T23:49:24.946Z,9.95
2022-08-26T23:51:47.076Z,10.65
2022-08-26T23:53:51.462Z,9.68
2022-08-26T23:55:54.872Z,8.60
2022-08-26T23:57:58.162Z,8.23
